KCRW Airport Diagram

We have created a template for each of the higher traffic airports in the vZID airspace. They include KCMH, KCRW, KCVG, KDAY, KIND, KLEX and KSDF. You wil find usefull information including the airport diagram, weather, and specific airport procedures.

KCRW Weather

[Source: ADDS]
METAR
KCRW 172154Z 28003KT 9SM FEW027 BKN043 BKN100 26/23 A2996 RMK AO2 LTG DSNT N AND NE RAB2056E41 SLP134 P0013 T02560233 =
KCRW 172128Z 1721/1818 24011KT P6SM VCSH SCT030 BKN050 FM180500 24005KT 5SM BR VCTS BKN016CB FM180800 24004KT 2SM BR BKN011 FM181000 25004KT 3/4SM BR BKN009 FM181200 26004KT 2SM BR BKN007 FM181300 26004KT 6SM BR BKN022
TAF
KCRW 172128Z 1721/1818 24011KT P6SM VCSH SCT030 BKN050 FM180500 24005KT 5SM BR VCTS BKN016CB FM180800 24004KT 2SM BR BKN011 FM181000 25004KT 3/4SM BR BKN009 FM181200 26004KT 2SM BR BKN007 FM181300 26004KT 6SM BR BKN022 =

KCRW Operations

Calm wind runway up to 10kts: Rw 23

 

JSN Epic template designed by JoomlaShine.com